Time;durP1;ratioP1;P1;durP2;ratioP2;P2;SDS_P1;SDS_P2;PMS_P1;PMS_P2;Temp;Humidity;BMP_temperature;BMP_pressure;BME280_temperature;BME280_humidity;BME280_pressure;Samples;Min_cycle;Max_cycle;Signal;HPM_P1;HPM_P2
2022/11/03 00:02:13;;;;;;;11.80;4.47;;;;;;;9.98;77.16;99088.69;5049096;28;20032;-46
2022/11/03 00:04:38;;;;;;;14.55;4.78;;;;;;;10.17;76.55;99087.22;5032467;28;20025;-46
2022/11/03 00:07:04;;;;;;;9.35;4.38;;;;;;;10.29;76.14;99095.41;5032481;28;20021;-45
2022/11/03 00:09:30;;;;;;;10.38;4.88;;;;;;;10.40;76.06;99083.63;5052782;28;20151;-46
2022/11/03 00:11:56;;;;;;;9.52;4.43;;;;;;;10.52;75.54;99078.66;5053012;28;20025;-45
2022/11/03 00:14:22;;;;;;;7.72;3.75;;;;;;;10.61;74.93;99074.91;5052898;28;20048;-46
2022/11/03 00:16:48;;;;;;;7.05;3.40;;;;;;;10.64;74.72;99065.84;5036333;28;20056;-46
2022/11/03 00:19:15;;;;;;;8.13;4.65;;;;;;;10.57;74.33;99066.59;5035922;28;20534;-46
2022/11/03 00:21:41;;;;;;;9.02;4.30;;;;;;;10.54;74.34;99064.38;5036496;28;20482;-46
2022/11/03 00:24:07;;;;;;;11.20;4.75;;;;;;;10.49;74.11;99074.63;5052871;28;20029;-46
2022/11/03 00:26:35;;;;;;;10.38;4.82;;;;;;;10.54;74.73;99072.25;5036038;28;20025;-46
2022/11/03 00:29:06;;;;;;;7.32;4.22;;;;;;;10.64;74.54;99071.09;5087101;28;20444;-46
2022/11/03 00:31:34;;;;;;;6.35;3.85;;;;;;;10.73;74.75;99070.75;5095376;28;20386;-46
2022/11/03 00:34:01;;;;;;;10.98;3.83;;;;;;;11.06;74.99;99071.97;5095257;28;20016;-46
2022/11/03 00:36:30;;;;;;;22.15;4.55;;;;;;;11.44;74.04;99074.97;5095119;28;20073;-46
2022/11/03 00:38:55;;;;;;;11.18;4.60;;;;;;;11.67;73.22;99066.78;5095098;28;20101;-46
2022/11/03 00:41:23;;;;;;;12.85;4.28;;;;;;;11.74;71.90;99072.84;5093754;28;20055;-46
2022/11/03 00:43:49;;;;;;;9.90;4.18;;;;;;;11.81;71.16;99064.97;5094055;28;20024;-46
2022/11/03 00:46:16;;;;;;;8.88;4.10;;;;;;;11.73;70.92;99068.63;5094969;28;20051;-46
2022/11/03 00:48:42;;;;;;;12.40;4.05;;;;;;;11.67;70.18;99064.16;5093638;28;20020;-46
2022/11/03 00:51:10;;;;;;;6.60;3.75;;;;;;;11.48;70.24;99067.53;5094932;28;20501;-46
2022/11/03 00:53:49;;;;;;;9.73;4.40;;;;;;;11.43;71.03;99062.88;5093559;28;20055;-46
2022/11/03 00:56:17;;;;;;;11.15;3.88;;;;;;;11.48;71.06;99057.00;5093559;28;20070;-46
2022/11/03 00:58:43;;;;;;;18.08;4.43;;;;;;;11.56;70.88;99052.38;5076544;28;20562;-45
2022/11/03 01:01:12;;;;;;;6.63;3.97;;;;;;;11.64;70.83;99042.69;5093368;28;20032;-46
2022/11/03 01:03:40;;;;;;;15.90;3.75;;;;;;;11.63;70.39;99035.81;5094646;28;20058;-45
2022/11/03 01:08:53;;;;;;;16.17;4.57;;;;;;;11.64;69.59;99030.38;5094916;28;20548;-46
2022/11/03 01:14:09;;;;;;;11.45;4.50;;;;;;;11.12;70.01;99031.78;5094783;28;20055;-45
2022/11/03 01:16:34;;;;;;;12.93;4.32;;;;;;;10.69;71.12;99024.91;5094389;28;20027;-46
2022/11/03 01:19:00;;;;;;;16.83;5.82;;;;;;;10.46;72.55;99024.34;5092251;28;20040;-46
2022/11/03 01:21:26;;;;;;;11.48;4.78;;;;;;;10.14;74.42;99024.69;5093830;28;20408;-45
2022/11/03 01:23:52;;;;;;;9.27;5.15;;;;;;;9.91;76.13;99018.81;5092983;28;20028;-45
2022/11/03 01:26:18;;;;;;;8.52;5.13;;;;;;;9.77;77.64;99012.63;5092934;28;20463;-46
2022/11/03 01:28:46;;;;;;;13.35;5.97;;;;;;;9.61;78.63;99011.06;5092851;28;20034;-45
2022/11/03 01:31:18;;;;;;;14.55;5.93;;;;;;;9.57;78.96;99002.75;5094126;28;20020;-45
2022/11/03 01:33:45;;;;;;;17.88;6.13;;;;;;;9.52;80.02;99001.72;5094062;28;20031;-45
2022/11/03 01:36:12;;;;;;;11.35;4.90;;;;;;;9.49;80.27;99002.06;5093997;28;20024;-45
2022/11/03 01:38:38;;;;;;;11.85;5.43;;;;;;;9.41;80.18;98992.50;5092635;28;20027;-45
2022/11/03 01:41:07;;;;;;;13.13;5.18;;;;;;;9.34;80.45;98997.69;5093951;28;20398;-45
2022/11/03 01:43:34;;;;;;;10.02;4.97;;;;;;;9.35;80.32;98995.88;5093926;28;20020;-45
2022/11/03 01:46:11;;;;;;;9.20;4.97;;;;;;;9.35;80.33;99003.72;5093828;28;20024;-45
2022/11/03 01:48:49;;;;;;;12.75;6.20;;;;;;;9.30;80.28;98985.94;5093870;28;20035;-45
2022/11/03 01:51:20;;;;;;;9.40;4.80;;;;;;;9.23;80.49;98990.28;5092485;28;20120;-45
2022/11/03 01:53:48;;;;;;;10.75;5.45;;;;;;;9.24;80.95;98986.69;5092435;28;20031;-45
2022/11/03 01:56:15;;;;;;;12.30;5.53;;;;;;;9.35;81.68;98983.56;5092365;28;20062;-45
2022/11/03 01:58:45;;;;;;;9.80;4.68;;;;;;;9.65;82.23;98969.56;5093609;28;20020;-45
2022/11/03 02:01:11;;;;;;;12.23;5.20;;;;;;;9.91;82.12;98963.75;5093723;28;20020;-46
2022/11/03 02:03:42;;;;;;;27.98;6.15;;;;;;;9.98;80.96;98959.41;5092187;28;20363;-45
2022/11/03 02:06:09;;;;;;;10.52;4.25;;;;;;;9.96;80.72;98948.25;5093479;28;20089;-45
2022/11/03 02:08:45;;;;;;;11.80;5.00;;;;;;;9.88;80.11;98943.97;5093685;28;20522;-45
2022/11/03 02:13:57;;;;;;;6.07;4.32;;;;;;;9.87;81.18;98941.53;5093623;28;20111;-46
2022/11/03 02:16:25;;;;;;;8.25;4.53;;;;;;;10.02;80.33;98933.59;5091961;28;20111;-46
2022/11/03 02:18:53;;;;;;;10.13;5.40;;;;;;;9.98;79.87;98926.13;5093024;28;20043;-46
2022/11/03 02:21:54;;;;;;;15.23;6.90;;;;;;;10.21;81.43;98917.19;5093173;28;20116;-46
2022/11/03 02:24:35;;;;;;;9.57;5.13;;;;;;;10.48;79.61;98915.53;5092166;28;20535;-46
2022/11/03 02:27:00;;;;;;;15.40;6.55;;;;;;;10.66;78.96;98912.41;5093138;28;20501;-46
2022/11/03 02:29:26;;;;;;;12.35;4.45;;;;;;;10.74;78.43;98904.38;5093016;28;20062;-45
2022/11/03 02:32:04;;;;;;;11.55;5.28;;;;;;;10.71;77.74;98899.53;5092849;28;20051;-45
2022/11/03 02:34:45;;;;;;;10.10;4.70;;;;;;;10.84;78.62;98887.44;5074798;28;20028;-45
2022/11/03 02:37:24;;;;;;;17.73;4.72;;;;;;;11.28;78.34;98886.16;5091594;28;20038;-45
2022/11/03 02:40:04;;;;;;;12.00;5.25;;;;;;;11.67;77.29;98882.75;5092809;28;20032;-46
2022/11/03 02:42:30;;;;;;;27.85;6.18;;;;;;;12.06;76.85;98889.00;5091500;28;20127;-46
2022/11/03 02:45:00;;;;;;;15.90;5.13;;;;;;;12.37;75.10;98882.25;5092787;28;20036;-46
2022/11/03 02:47:29;;;;;;;12.50;5.00;;;;;;;12.60;74.56;98881.81;5074743;28;20031;-46
2022/11/03 02:49:55;;;;;;;7.95;3.60;;;;;;;12.88;73.31;98883.31;5074782;28;20443;-46
2022/11/03 02:52:33;;;;;;;11.48;5.05;;;;;;;13.02;71.37;98892.75;5092543;28;20024;-46
2022/11/03 02:55:08;;;;;;;5.97;3.28;;;;;;;12.70;70.53;98884.00;5091296;28;20397;-46
2022/11/03 02:57:39;;;;;;;21.02;13.30;;;;;;;12.31;70.95;98869.94;5091361;28;20501;-46
2022/11/03 03:00:06;;;;;;;19.13;11.73;;;;;;;12.08;71.93;98873.84;5092447;28;20039;-46
2022/11/03 03:02:52;;;;;;;16.33;7.70;;;;;;;12.12;73.11;98864.53;5092713;28;20020;-46
2022/11/03 03:05:23;;;;;;;7.30;3.70;;;;;;;12.39;72.34;98867.91;5092451;28;20458;-46
2022/11/03 03:07:55;;;;;;;7.30;3.28;;;;;;;12.39;70.53;98865.28;5092423;28;20028;-46
2022/11/03 03:10:25;;;;;;;19.23;4.22;;;;;;;12.35;70.70;98865.88;5092393;28;20028;-46
2022/11/03 03:12:55;;;;;;;7.57;3.90;;;;;;;12.43;70.25;98854.31;5092347;28;20024;-46
2022/11/03 03:15:33;;;;;;;11.73;3.80;;;;;;;12.29;70.04;98851.72;5090955;28;20036;-46
2022/11/03 03:18:37;;;;;;;10.13;4.05;;;;;;;11.91;70.02;98841.91;5090687;28;20165;-46
2022/11/03 03:21:25;;;;;;;6.93;3.88;;;;;;;11.28;70.98;98834.41;5092127;28;20563;-46
2022/11/03 03:24:01;;;;;;;8.60;3.78;;;;;;;10.80;71.58;98821.38;5090850;28;20039;-46
2022/11/03 03:26:32;;;;;;;13.43;5.22;;;;;;;10.77;73.63;98821.81;5092089;28;20035;-46
2022/11/03 03:29:14;;;;;;;19.67;4.38;;;;;;;10.91;74.22;98823.44;5090773;28;20092;-45
2022/11/03 03:31:46;;;;;;;13.55;4.68;;;;;;;11.07;74.50;98817.00;5090730;28;20088;-46
2022/11/03 03:34:15;;;;;;;7.93;3.90;;;;;;;11.26;73.24;98815.41;5092031;28;20028;-45
2022/11/03 03:36:43;;;;;;;11.10;4.10;;;;;;;11.05;72.68;98819.03;5091955;28;20016;-45
2022/11/03 03:39:13;;;;;;;16.02;4.38;;;;;;;10.88;72.69;98810.72;5091835;28;20153;-46
2022/11/03 03:41:40;;;;;;;9.30;3.70;;;;;;;10.65;72.91;98808.44;5091838;28;20111;-45
2022/11/03 03:44:09;;;;;;;11.00;3.97;;;;;;;10.49;73.81;98809.59;5090043;28;20047;-45
2022/11/03 03:46:40;;;;;;;12.23;4.65;;;;;;;10.70;75.12;98811.25;5091843;28;20047;-46
2022/11/03 03:49:07;;;;;;;13.48;4.20;;;;;;;11.00;75.00;98816.19;5090572;28;20047;-45
2022/11/03 03:51:34;;;;;;;11.52;4.13;;;;;;;11.10;74.06;98818.44;5090475;28;20371;-46
2022/11/03 03:54:00;;;;;;;11.73;4.10;;;;;;;10.99;73.59;98812.75;5091734;28;20516;-46
2022/11/03 03:56:37;;;;;;;11.88;4.03;;;;;;;11.02;73.86;98816.00;5091779;28;20017;-46
2022/11/03 03:59:03;;;;;;;8.23;3.38;;;;;;;10.97;73.02;98812.16;5090353;28;20081;-45
2022/11/03 04:01:29;;;;;;;9.70;3.85;;;;;;;10.81;73.40;98809.09;5090382;28;20024;-45
2022/11/03 04:03:54;;;;;;;16.67;3.95;;;;;;;10.72;74.93;98806.63;5090404;28;20024;-46
2022/11/03 04:06:20;;;;;;;12.00;4.15;;;;;;;10.89;75.09;98801.03;5091642;28;20020;-46
2022/11/03 04:08:46;;;;;;;13.32;4.72;;;;;;;10.84;74.64;98796.34;5091652;28;20066;-45
2022/11/03 04:22:16;;;;;;;12.45;4.30;;;;;;;11.63;73.06;98783.44;5091583;28;20034;-46
2022/11/03 04:24:47;;;;;;;12.05;4.43;;;;;;;11.54;72.91;98781.03;5091579;28;20089;-46
2022/11/03 04:27:34;;;;;;;7.47;3.53;;;;;;;11.54;72.70;98780.22;5091379;28;20023;-46
2022/11/03 04:30:08;;;;;;;12.85;2.60;;;;;;;11.54;72.33;98770.53;5091387;28;20032;-46
2022/11/03 04:32:34;;;;;;;6.63;3.03;;;;;;;11.66;72.57;98770.72;5091477;28;20024;-46
2022/11/03 04:35:00;;;;;;;12.82;3.03;;;;;;;11.80;72.99;98774.91;5090212;28;20068;-46
2022/11/03 04:37:28;;;;;;;11.60;2.85;;;;;;;12.05;72.05;98750.59;5090056;28;20048;-46
2022/11/03 04:40:01;;;;;;;11.75;2.28;;;;;;;12.32;71.72;98745.25;5090026;28;20557;-46
2022/11/03 04:42:32;;;;;;;6.43;1.58;;;;;;;12.54;71.13;98743.91;5091641;28;20107;-46
2022/11/03 04:45:01;;;;;;;6.43;1.90;;;;;;;12.82;70.57;98737.47;5090063;28;20119;-46
2022/11/03 04:47:29;;;;;;;10.48;1.92;;;;;;;13.09;69.17;98739.88;5091293;28;20020;-46
2022/11/03 04:49:55;;;;;;;7.90;1.85;;;;;;;13.26;68.50;98740.97;5089940;28;20041;-46
2022/11/03 04:52:21;;;;;;;4.55;2.15;;;;;;;13.43;68.26;98724.63;5089897;28;20020;-46
2022/11/03 04:54:51;;;;;;;4.60;1.70;;;;;;;13.61;67.50;98729.91;5090616;28;20036;-46
2022/11/03 04:57:17;;;;;;;7.88;1.80;;;;;;;13.73;66.87;98722.88;5093553;28;20032;-46
2022/11/03 04:59:46;;;;;;;5.10;1.65;;;;;;;13.89;66.55;98715.41;5093406;28;20155;-46
2022/11/03 05:02:15;;;;;;;4.95;2.20;;;;;;;14.05;66.11;98714.81;5094713;28;20024;-46
2022/11/03 05:04:42;;;;;;;6.40;2.20;;;;;;;14.22;65.54;98728.19;5094688;28;20055;-46
2022/11/03 05:07:30;;;;;;;7.50;2.03;;;;;;;14.28;64.92;98723.84;5093312;28;20016;-46
2022/11/03 05:09:56;;;;;;;4.57;2.20;;;;;;;14.27;64.31;98725.69;5093380;28;20488;-46
2022/11/03 05:12:22;;;;;;;8.48;1.92;;;;;;;14.16;64.30;98727.25;5093309;28;20059;-46
2022/11/03 05:14:48;;;;;;;6.70;1.95;;;;;;;14.08;64.93;98713.56;5094522;28;20031;-46
2022/11/03 05:17:18;;;;;;;4.90;1.45;;;;;;;14.01;64.77;98721.56;5093114;28;20016;-46
2022/11/03 05:19:44;;;;;;;7.18;2.20;;;;;;;13.88;65.17;98727.78;5094110;28;20405;-46
2022/11/03 05:22:17;;;;;;;4.90;2.08;;;;;;;13.81;65.56;98713.06;5094260;28;20020;-46
2022/11/03 05:24:43;;;;;;;5.07;1.98;;;;;;;13.81;65.51;98702.53;5093100;28;20378;-46
2022/11/03 05:27:19;;;;;;;9.27;1.73;;;;;;;13.74;65.06;98700.78;5092905;28;20020;-46
2022/11/03 05:29:47;;;;;;;8.77;2.20;;;;;;;13.66;65.65;98697.59;5094273;28;20035;-46
2022/11/03 05:32:23;;;;;;;6.18;1.70;;;;;;;13.68;65.49;98695.56;5094085;28;20512;-46
2022/11/03 05:34:51;;;;;;;7.40;1.85;;;;;;;13.74;65.59;98699.94;5092891;28;20402;-46
2022/11/03 05:37:34;;;;;;;7.72;2.30;;;;;;;13.72;65.00;98694.09;5092691;28;20036;-46
2022/11/03 05:40:12;;;;;;;6.93;2.00;;;;;;;13.74;65.18;98684.94;5092631;28;20107;-46
2022/11/03 05:42:45;;;;;;;4.28;1.67;;;;;;;13.77;64.70;98673.94;5092690;28;20119;-46
2022/11/03 05:45:22;;;;;;;12.45;1.83;;;;;;;13.83;64.77;98671.47;5093877;28;20497;-46
2022/11/03 05:47:51;;;;;;;3.85;1.70;;;;;;;13.89;64.82;98671.38;5093895;28;20047;-46
2022/11/03 05:50:29;;;;;;;8.30;2.63;;;;;;;13.93;64.84;98677.81;5092432;28;20028;-46
2022/11/03 05:53:23;;;;;;;4.57;1.70;;;;;;;14.03;64.18;98672.00;5093805;28;20020;-46
2022/11/03 05:55:48;;;;;;;3.90;1.73;;;;;;;14.14;63.73;98681.78;5092373;28;20028;-46
2022/11/03 05:58:34;;;;;;;3.35;1.38;;;;;;;14.21;63.16;98681.72;5092349;28;20476;-46
2022/11/03 06:01:02;;;;;;;2.28;1.30;;;;;;;14.37;62.67;98675.00;5093588;28;20027;-46
2022/11/03 06:03:30;;;;;;;4.60;2.00;;;;;;;14.47;61.67;98669.19;5075814;28;20132;-46
2022/11/03 06:05:57;;;;;;;4.43;1.70;;;;;;;14.50;61.77;98676.63;5091775;28;20378;-46
2022/11/03 06:08:25;;;;;;;5.13;1.70;;;;;;;14.54;61.43;98680.44;5093377;28;20084;-46
2022/11/03 06:10:54;;;;;;;5.95;1.95;;;;;;;14.52;61.37;98671.94;5092083;28;20032;-46
2022/11/03 06:13:33;;;;;;;7.45;1.75;;;;;;;14.57;61.39;98654.41;5092034;28;20101;-46
2022/11/03 06:16:27;;;;;;;4.45;1.83;;;;;;;14.56;61.08;98655.44;5092356;28;20486;-46
2022/11/03 06:18:53;;;;;;;25.42;3.00;;;;;;;14.49;61.66;98660.00;5092125;28;20071;-46
2022/11/03 06:21:24;;;;;;;18.20;2.60;;;;;;;14.44;61.88;98665.13;5093037;28;20486;-46
2022/11/03 06:23:52;;;;;;;9.30;1.80;;;;;;;14.49;61.97;98653.91;5093147;28;20051;-46
2022/11/03 06:26:22;;;;;;;4.53;1.58;;;;;;;14.40;62.15;98656.06;5093067;28;20016;-46
2022/11/03 06:28:48;;;;;;;6.32;1.75;;;;;;;14.38;62.36;98668.69;5091724;28;20040;-46
2022/11/03 06:31:22;;;;;;;8.18;1.83;;;;;;;14.30;62.49;98672.44;5093006;28;20020;-46
2022/11/03 06:33:48;;;;;;;5.80;2.00;;;;;;;14.26;62.82;98679.19;5093055;28;20036;-46
2022/11/03 06:36:26;;;;;;;21.17;3.40;;;;;;;14.44;62.26;98678.34;5092933;28;20021;-46
2022/11/03 06:39:02;;;;;;;89.72;7.43;;;;;;;14.42;62.39;98669.84;5091546;28;20111;-46
2022/11/03 06:41:35;;;;;;;39.38;5.22;;;;;;;14.36;62.71;98662.81;5092860;28;20435;-46
2022/11/03 06:44:21;;;;;;;25.17;3.13;;;;;;;14.28;62.85;98657.88;5091437;28;20105;-46
2022/11/03 06:46:47;;;;;;;4.95;1.75;;;;;;;14.41;62.69;98656.84;5091621;28;20515;-46
2022/11/03 06:49:39;;;;;;;20.38;2.10;;;;;;;14.49;62.58;98653.91;5092590;28;20099;-46
2022/11/03 06:52:42;;;;;;;9.13;1.75;;;;;;;14.56;62.38;98644.06;5089655;28;20043;-46
2022/11/03 06:55:10;;;;;;;3.28;1.45;;;;;;;14.59;62.08;98651.56;5092603;28;20076;-46
2022/11/03 06:57:41;;;;;;;6.30;1.90;;;;;;;14.51;62.37;98652.66;5092569;28;20024;-46
2022/11/03 07:00:27;;;;;;;10.93;2.35;;;;;;;14.53;62.15;98661.16;5091052;28;20020;-46
2022/11/03 07:03:27;;;;;;;3.65;1.90;;;;;;;14.60;62.26;98662.91;5092486;28;20024;-46
2022/11/03 07:06:03;;;;;;;5.85;1.95;;;;;;;14.67;61.79;98653.03;5092513;28;20028;-46
2022/11/03 07:08:36;;;;;;;7.25;2.67;;;;;;;14.76;61.51;98649.03;5092457;28;20490;-46
2022/11/03 07:11:18;;;;;;;5.82;2.30;;;;;;;14.87;61.24;98669.41;5092639;28;20402;-46
2022/11/03 07:13:47;;;;;;;6.07;1.92;;;;;;;14.91;60.65;98673.19;5092336;28;20451;-46
2022/11/03 07:16:47;;;;;;;3.60;1.88;;;;;;;14.95;60.87;98679.63;5090874;28;20028;-46
2022/11/03 07:19:21;;;;;;;5.40;2.40;;;;;;;14.99;60.89;98687.91;5046728;28;20036;-46
2022/11/03 07:21:53;;;;;;;8.45;1.67;;;;;;;15.15;60.26;98689.03;5090928;28;20535;-46
2022/11/03 07:24:28;;;;;;;5.20;2.25;;;;;;;15.12;60.46;98685.03;5090805;28;20031;-46
2022/11/03 07:27:05;;;;;;;6.72;2.03;;;;;;;15.33;60.16;98685.47;5090847;28;20084;-46
2022/11/03 07:29:31;;;;;;;7.07;2.22;;;;;;;15.35;59.59;98693.97;5092096;28;20494;-46
2022/11/03 07:31:59;;;;;;;3.63;1.80;;;;;;;15.23;60.02;98688.72;5091007;28;20020;-46
2022/11/03 07:34:32;;;;;;;4.03;1.70;;;;;;;15.18;60.12;98697.31;5091969;28;20111;-46
2022/11/03 07:36:57;;;;;;;3.80;1.75;;;;;;;15.46;59.76;98695.03;5090677;28;20433;-46
2022/11/03 07:39:32;;;;;;;10.88;2.60;;;;;;;16.09;58.33;98685.47;5090573;28;20035;-46
2022/11/03 07:41:58;;;;;;;5.65;1.85;;;;;;;16.17;56.99;98675.28;5091881;28;20032;-46
2022/11/03 07:44:23;;;;;;;5.93;1.70;;;;;;;16.01;57.27;98669.97;5090592;28;20038;-46
2022/11/03 07:46:50;;;;;;;10.65;2.15;;;;;;;15.93;57.64;98657.91;5090535;28;20035;-46
2022/11/03 07:49:27;;;;;;;5.68;1.95;;;;;;;15.87;57.61;98664.94;5090545;28;20038;-46
2022/11/03 07:51:55;;;;;;;12.57;2.40;;;;;;;15.74;57.84;98657.28;5091781;28;20016;-46
2022/11/03 07:54:29;;;;;;;6.88;2.33;;;;;;;15.70;57.86;98650.81;5073897;28;20020;-46
2022/11/03 07:57:23;;;;;;;24.75;2.83;;;;;;;15.61;58.26;98653.00;5074189;28;20038;-46
2022/11/03 08:00:01;;;;;;;12.30;1.80;;;;;;;15.57;58.43;98652.69;5091798;28;20498;-46
2022/11/03 08:02:51;;;;;;;7.40;1.85;;;;;;;15.56;58.31;98650.28;5091846;28;20028;-46
2022/11/03 08:05:17;;;;;;;19.67;3.13;;;;;;;15.67;58.55;98661.84;5091311;28;20052;-46
2022/11/03 08:07:42;;;;;;;5.95;1.73;;;;;;;15.94;57.59;98651.56;5091770;28;20028;-46
2022/11/03 08:10:08;;;;;;;10.95;2.05;;;;;;;16.07;57.56;98642.53;5091884;28;20036;-46
2022/11/03 08:12:34;;;;;;;6.28;1.85;;;;;;;16.14;57.06;98651.94;5073522;28;20506;-46
2022/11/03 08:15:00;;;;;;;9.15;2.42;;;;;;;16.26;56.59;98641.31;5091623;28;20016;-46
2022/11/03 08:17:25;;;;;;;5.05;1.70;;;;;;;16.49;55.92;98664.19;5090295;28;20031;-46
2022/11/03 08:19:51;;;;;;;10.55;2.33;;;;;;;16.67;55.13;98633.22;5091144;28;20047;-46
2022/11/03 08:22:17;;;;;;;10.93;1.92;;;;;;;17.00;53.97;98634.28;5090550;28;20040;-46
2022/11/03 08:24:43;;;;;;;7.45;1.40;;;;;;;17.29;53.18;98627.78;5090243;28;20117;-46
2022/11/03 08:27:09;;;;;;;22.90;3.13;;;;;;;17.58;52.53;98620.44;5090155;28;20028;-46
2022/11/03 08:29:35;;;;;;;20.38;2.38;;;;;;;17.76;51.89;98606.06;5093492;28;20028;-46
2022/11/03 08:32:01;;;;;;;13.88;2.47;;;;;;;17.84;51.21;98601.38;5095321;28;20016;-46
2022/11/03 08:34:27;;;;;;;25.77;2.75;;;;;;;17.94;51.04;98596.19;5094003;28;20123;-46
2022/11/03 08:36:52;;;;;;;19.98;3.30;;;;;;;18.11;50.69;98588.94;5095201;28;20107;-47
2022/11/03 08:39:18;;;;;;;21.08;3.33;;;;;;;18.20;49.97;98585.81;5093814;28;20032;-46
2022/11/03 08:41:44;;;;;;;12.55;2.13;;;;;;;18.06;50.06;98564.16;5093878;28;20114;-46
2022/11/03 08:44:09;;;;;;;18.85;2.58;;;;;;;17.90;50.71;98568.53;5093791;28;20024;-46
2022/11/03 08:46:35;;;;;;;30.85;3.70;;;;;;;17.82;50.97;98572.41;5095323;28;20038;-46
2022/11/03 08:49:01;;;;;;;23.63;3.50;;;;;;;17.73;51.28;98576.56;5093834;28;20020;-46
2022/11/03 08:51:27;;;;;;;13.75;1.85;;;;;;;17.77;51.46;98570.50;5094977;28;20024;-46
2022/11/03 08:53:54;;;;;;;21.27;2.92;;;;;;;17.90;50.75;98574.63;5094913;28;20024;-46
2022/11/03 08:56:20;;;;;;;11.00;2.58;;;;;;;17.87;50.81;98588.44;5094816;28;20510;-46
2022/11/03 08:58:46;;;;;;;3.30;1.70;;;;;;;17.82;50.88;98556.47;5094878;28;20075;-46
2022/11/03 09:01:13;;;;;;;24.08;2.55;;;;;;;17.83;50.85;98568.75;5094719;28;20021;-46
2022/11/03 09:03:39;;;;;;;16.23;2.20;;;;;;;17.80;51.15;98563.09;5094763;28;20455;-46
2022/11/03 09:06:05;;;;;;;14.48;2.60;;;;;;;17.80;51.20;98560.44;5093639;28;20035;-46
2022/11/03 09:08:31;;;;;;;9.18;1.70;;;;;;;17.81;51.22;98560.19;5093463;28;20024;-46
2022/11/03 09:10:57;;;;;;;4.13;1.33;;;;;;;17.77;51.36;98557.22;5093236;28;20068;-46
2022/11/03 09:13:22;;;;;;;6.00;1.67;;;;;;;17.73;51.63;98547.38;5093239;28;20031;-46
2022/11/03 09:15:48;;;;;;;5.53;1.65;;;;;;;17.75;51.22;98535.44;5093186;28;20016;-46
2022/11/03 09:18:14;;;;;;;5.47;1.70;;;;;;;17.74;51.24;98539.13;5094469;28;20480;-46
2022/11/03 09:20:40;;;;;;;4.55;1.70;;;;;;;17.69;51.63;98527.69;5094063;28;20059;-46
2022/11/03 09:23:06;;;;;;;4.68;1.73;;;;;;;17.68;51.28;98516.25;5094358;28;20024;-46
2022/11/03 09:25:31;;;;;;;7.03;2.10;;;;;;;17.66;51.61;98521.00;5092999;28;20031;-46
2022/11/03 09:27:57;;;;;;;5.38;1.70;;;;;;;17.63;50.99;98524.19;5094226;28;20028;-46
2022/11/03 09:30:23;;;;;;;4.97;2.00;;;;;;;17.58;51.62;98510.84;5092901;28;20079;-46
2022/11/03 09:32:49;;;;;;;3.50;1.95;;;;;;;17.60;52.91;98510.59;5094207;28;20074;-46
2022/11/03 09:35:15;;;;;;;10.73;2.70;;;;;;;17.54;52.44;98497.28;5092824;28;20024;-46
2022/11/03 09:37:42;;;;;;;11.40;2.28;;;;;;;17.54;52.75;98484.00;5093983;28;20027;-46
2022/11/03 09:40:12;;;;;;;11.10;2.45;;;;;;;17.53;53.59;98489.59;5093345;28;20036;-46
2022/11/03 09:42:39;;;;;;;6.97;1.90;;;;;;;17.53;52.46;98494.88;5094147;28;20024;-46
2022/11/03 09:45:07;;;;;;;3.97;1.70;;;;;;;17.47;52.48;98502.00;5092970;28;20555;-46
2022/11/03 09:47:37;;;;;;;6.95;2.58;;;;;;;17.49;52.52;98491.94;5092605;28;20052;-46
2022/11/03 09:50:04;;;;;;;14.30;2.30;;;;;;;17.51;51.75;98478.41;5092543;28;20059;-46
2022/11/03 09:52:31;;;;;;;6.63;3.22;;;;;;;17.46;52.00;98459.78;5092548;28;20020;-46
2022/11/03 09:54:58;;;;;;;14.35;2.47;;;;;;;17.52;51.33;98462.22;5093791;28;20042;-46
2022/11/03 09:57:27;;;;;;;11.68;2.58;;;;;;;17.43;51.79;98466.41;5093621;28;20028;-46
2022/11/03 09:59:53;;;;;;;14.02;2.22;;;;;;;17.44;52.56;98459.22;5093570;28;20028;-46
2022/11/03 10:02:31;;;;;;;10.25;2.00;;;;;;;17.48;52.23;98468.28;5092304;28;20523;-46
2022/11/03 10:05:00;;;;;;;13.00;2.20;;;;;;;17.40;52.24;98479.34;5093618;28;20028;-46
2022/11/03 10:07:29;;;;;;;16.60;2.22;;;;;;;17.41;52.39;98480.97;5093513;28;20012;-46
2022/11/03 10:09:57;;;;;;;11.18;2.40;;;;;;;17.45;52.71;98495.34;5093742;28;20390;-47
2022/11/03 10:12:24;;;;;;;10.93;1.98;;;;;;;17.58;52.41;98490.41;5092052;28;20016;-46
2022/11/03 10:14:51;;;;;;;35.42;3.45;;;;;;;17.82;51.33;98486.66;5093408;28;20024;-46
2022/11/03 10:17:20;;;;;;;33.72;3.50;;;;;;;17.84;51.14;98484.59;5093310;28;20031;-47
2022/11/03 10:19:51;;;;;;;17.35;2.75;;;;;;;17.88;50.83;98473.19;5091805;28;20036;-46
2022/11/03 10:22:21;;;;;;;12.38;2.00;;;;;;;17.85;50.86;98475.56;5092007;28;20520;-46
2022/11/03 10:24:47;;;;;;;13.15;1.92;;;;;;;17.72;51.25;98460.81;5091845;28;20048;-46
2022/11/03 10:27:24;;;;;;;43.60;4.05;;;;;;;17.54;51.96;98454.81;5091802;28;20028;-46
2022/11/03 10:30:12;;;;;;;76.82;6.38;;;;;;;17.42;52.09;98437.47;5093440;28;20444;-46
2022/11/03 10:32:38;;;;;;;31.77;4.60;;;;;;;17.31;52.08;98436.56;5091681;28;20111;-47
2022/11/03 10:35:34;;;;;;;41.70;4.40;;;;;;;17.20;52.66;98416.28;5092898;28;20100;-46
2022/11/03 10:38:33;;;;;;;53.22;4.50;;;;;;;17.14;52.35;98394.22;5092952;28;20036;-46
2022/11/03 10:41:16;;;;;;;62.78;7.03;;;;;;;17.02;53.01;98397.00;5059391;28;20040;-46
2022/11/03 10:44:27;;;;;;;24.33;3.08;;;;;;;16.93;52.99;98401.16;5091518;28;20036;-46
2022/11/03 10:47:01;;;;;;;8.93;2.45;;;;;;;16.88;53.08;98393.16;5087686;28;20028;-46
2022/11/03 10:49:29;;;;;;;28.85;3.25;;;;;;;16.88;53.28;98390.50;5091470;28;20036;-46
2022/11/03 10:52:06;;;;;;;28.58;3.13;;;;;;;16.97;53.34;98397.75;5091326;28;20059;-46
2022/11/03 10:54:35;;;;;;;9.65;2.30;;;;;;;17.09;52.84;98378.28;5091665;28;20063;-46
2022/11/03 10:57:01;;;;;;;17.73;2.88;;;;;;;17.07;52.72;98365.25;5092500;28;20106;-46
2022/11/03 10:59:37;;;;;;;9.48;2.22;;;;;;;17.02;52.52;98367.84;5092698;28;20421;-46
2022/11/03 11:02:15;;;;;;;11.23;2.17;;;;;;;17.01;52.26;98354.88;5091236;28;20036;-46
2022/11/03 11:04:41;;;;;;;47.55;6.18;;;;;;;17.00;52.32;98343.44;5092766;28;20028;-46
2022/11/03 11:07:24;;;;;;;12.45;2.17;;;;;;;16.96;52.52;98353.75;5091057;28;20043;-46
2022/11/03 11:09:50;;;;;;;7.15;2.03;;;;;;;16.88;52.74;98348.91;5092330;28;20032;-46
2022/11/03 11:12:21;;;;;;;10.13;2.75;;;;;;;16.91;52.80;98335.16;5091005;28;20059;-46
2022/11/03 11:15:01;;;;;;;8.57;2.25;;;;;;;17.13;52.50;98336.94;5092260;28;20070;-46
2022/11/03 11:17:36;;;;;;;7.30;2.10;;;;;;;17.16;52.13;98323.16;5091056;28;20040;-46
2022/11/03 11:20:28;;;;;;;6.07;2.20;;;;;;;17.12;52.11;98316.78;5091842;28;20126;-46
2022/11/03 11:23:30;;;;;;;15.85;2.22;;;;;;;17.23;51.74;98317.69;5092494;28;20123;-46
2022/11/03 11:26:24;;;;;;;9.88;2.25;;;;;;;17.11;52.23;98304.59;5091996;28;20458;-46
2022/11/03 11:29:08;;;;;;;6.72;2.13;;;;;;;17.08;52.19;98286.50;5083341;28;20505;-46
2022/11/03 11:31:40;;;;;;;7.18;1.77;;;;;;;17.04;52.00;98250.94;5091948;28;20039;-46
2022/11/03 11:34:09;;;;;;;7.45;2.20;;;;;;;16.99;51.77;98272.13;5090719;28;20028;-46
2022/11/03 11:36:39;;;;;;;4.60;2.83;;;;;;;16.90;52.46;98259.34;5092038;28;20020;-46
2022/11/03 11:39:21;;;;;;;7.70;2.10;;;;;;;16.70;54.22;98253.81;5090694;28;20032;-46
2022/11/03 11:42:10;;;;;;;4.38;2.13;;;;;;;16.36;55.97;98254.00;5091940;28;20027;-46
2022/11/03 11:44:42;;;;;;;9.30;2.08;;;;;;;16.17;56.27;98278.13;5091920;28;20020;-46
2022/11/03 11:47:28;;;;;;;6.07;2.20;;;;;;;16.15;56.86;98276.78;5090601;28;20389;-46
2022/11/03 11:50:09;;;;;;;3.97;2.10;;;;;;;16.26;56.26;98259.16;5090549;28;20035;-46
2022/11/03 11:52:43;;;;;;;3.25;1.83;;;;;;;16.42;55.24;98258.31;5091819;28;20107;-46
2022/11/03 11:55:22;;;;;;;5.97;1.95;;;;;;;16.46;55.62;98263.88;5092075;28;20475;-46
2022/11/03 11:57:48;;;;;;;6.68;2.20;;;;;;;16.51;56.41;98272.69;5090470;28;20012;-46
2022/11/03 12:00:23;;;;;;;5.47;1.88;;;;;;;16.43;56.24;98265.19;5091692;28;20107;-46
2022/11/03 12:02:51;;;;;;;5.38;2.08;;;;;;;16.32;57.34;98272.25;5091951;28;20398;-46
2022/11/03 12:05:20;;;;;;;4.32;2.30;;;;;;;16.11;58.25;98273.03;5095083;28;20031;-46
2022/11/03 12:07:46;;;;;;;5.60;2.05;;;;;;;15.95;59.75;98256.97;5094498;28;20085;-46
2022/11/03 12:10:17;;;;;;;2.67;1.75;;;;;;;15.88;59.54;98266.16;5095738;28;20515;-46